• Join FlightAware (Why Join?)
  • Login
  • US Flag 
09:27AM EDT


 

Airport Tracker/Info


-or-


 

Live Flight TrackerFlight Track Log ✈ SWA1725 ✈ 06-Jan-2014 ✈ KOAK - KLAX

Flight Track Log - Related Links

Times and Time Zones

All times are in EST time to prevent confusion due to time zone crossing. See the SWA1725 flight status page for this flight to view local times or setup timezone preferences in your user account.

Time Position Orientation Groundspeed Altitude Reporting Facility
EST Latitude Longitude Course Direction KTS MPH feet Rate Location/Type
09:10AM 37.7211 -122.2475 285° West 159 183 1,300  Level Oakland Center
09:11AM 37.7361 -122.3181 285° West 210 242 4,000 2,760 Climbing Oakland Center
09:12AM 37.7511 -122.4053 282° West 257 296 6,900 3,300 Climbing Oakland Center
09:13AM 37.6922 -122.4672 220° Southwest 277 319 10,700 3,300 Climbing Oakland Center
09:14AM 37.6183 -122.4886 193° South 303 349 13,600 3,300 Climbing Oakland Center
09:15AM 37.5533 -122.4000 133° Southeast 345 397 17,300 2,640 Climbing Oakland Center
09:17AM 37.4831 -122.3106 135° Southeast 357 411 19,000 1,980 Climbing Oakland Center
09:18AM 37.4117 -122.2161 134° Southeast 368 423 21,400 2,520 Climbing Oakland Center
09:19AM 37.3356 -122.1178 134° Southeast 387 445 24,200 2,520 Climbing Oakland Center
09:20AM 37.2572 -122.0150 134° Southeast 404 465 26,500 2,160 Climbing Oakland Center
09:21AM 37.1747 -121.9078 134° Southeast 424 488 28,600 1,920 Climbing Oakland Center
09:22AM 37.0956 -121.8058 134° Southeast 440 506 30,400 1,860 Climbing Oakland Center
09:23AM 36.9972 -121.6864 136° Southeast 454 522 32,400 2,220 Climbing Oakland Center
09:24AM 36.9114 -121.5736 134° Southeast 451 519 34,900 2,040 Climbing Oakland Center
09:25AM 36.8272 -121.4617 133° Southeast 443 510 36,600 1,380 Climbing Oakland Center
09:26AM 36.7336 -121.3475 136° Southeast 444 511 37,700 840 Climbing Oakland Center
09:27AM 36.6442 -121.2297 133° Southeast 462 532 38,400 600 Climbing Oakland Center
09:28AM 36.5517 -121.1142 135° Southeast 472 543 39,000 240 Climbing Oakland Center
09:29AM 36.4578 -120.9944 134° Southeast 481 554 39,000  Level Oakland Center
09:30AM 36.3647 -120.8744 134° Southeast 482 555 39,000  Level Oakland Center
09:31AM 36.2725 -120.7558 134° Southeast 479 551 39,000  Level Oakland Center
09:32AM 36.1778 -120.6397 135° Southeast 479 551 39,000  Level Oakland Center
09:33AM 36.0836 -120.5217 135° Southeast 480 552 39,000  Level Oakland Center
09:34AM 35.9900 -120.4031 134° Southeast 481 554 39,000  Level Oakland Center
09:35AM 35.8942 -120.2853 135° Southeast 483 556 39,000  Level Oakland Center
09:36AM 35.7986 -120.1664 135° Southeast 484 557 39,000  Level Oakland Center
09:37AM 35.7031 -120.0481 135° Southeast 483 556 39,000  Level Oakland Center
09:38AM 35.6017 -119.9372 138° Southeast 484 557 39,000  Level Oakland Center
09:39AM 35.4900 -119.8433 146° Southeast 482 555 39,000  Level Oakland Center
09:40AM 35.3803 -119.7481 145° Southeast 481 554 39,000 -300 Level Oakland Center
09:41AM 35.2711 -119.6536 145° Southeast 478 550 38,400 -1,320 Descending Oakland Center
09:42AM 35.1625 -119.5617 145° Southeast 475 547 36,400 -2,520 Descending Oakland Center
09:43AM 35.0558 -119.4700 145° Southeast 471 542 33,300 -3,000 Descending Oakland Center
09:44AM 34.9486 -119.3794 145° Southeast 469 540 30,400 -2,100 Descending Oakland Center
09:45AM 34.8458 -119.2928 145° Southeast 456 525 29,100 -2,160 Descending Oakland Center
09:46AM 34.7469 -119.2089 145° Southeast 439 505 26,100 -2,700 Descending Oakland Center
09:47AM 34.6117 -119.0925 145° Southeast 438 504 23,000 -2,400 Descending Los Angeles Center
09:48AM 34.5197 -119.0156 145° Southeast 401 461 20,700 -2,400 Descending Los Angeles Center
09:49AM 34.4286 -118.9406 146° Southeast 395 455 18,100 -2,400 Descending Los Angeles Center
09:50AM 34.3408 -118.8739 148° Southeast 368 423 15,900 -2,280 Descending Los Angeles Center
09:51AM 34.2456 -118.8400 164° South 356 410 13,500 -2,340 Descending Los Angeles Center
09:52AM 34.1525 -118.8050 163° South 350 403 11,200 -1,740 Descending Los Angeles Center
09:53AM 34.0475 -118.7567 159° South 341 392 10,000 -600 Descending Los Angeles Center
09:54AM 34.0294 -118.6589 103° East 303 349 10,000 -720 Level Los Angeles Center
09:55AM 34.0206 -118.5642 96° East 288 331 8,600 -1,380 Descending Los Angeles Center
09:56AM 34.0114 -118.4694 97° East 284 327 7,200 -1,500 Descending Los Angeles Center
09:57AM 34.0208 -118.3786 83° East 280 322 5,600 -1,620 Descending Los Angeles Center
09:58AM 34.0283 -118.2883 84° East 272 313 3,900 -1,140 Descending Los Angeles Center
09:59AM 33.9881 -118.2606 150° Southeast 219 252 3,400 -1,080 Descending Los Angeles Center
10:00AM 33.9667 -118.3114 243° Southwest 186 214 1,800 -1,320 Descending Los Angeles Center
10:01AM 33.9575 -118.3625 258° West 171 197 700 -840 Descending Los Angeles Center
10:02AM 33.9503 -118.4119 260° West 153 176 200 -540 Descending Los Angeles Center
10:04AM 33.9425 -118.4081 228° Southwest  Level Estimated
10:11AM 33.9425 -118.4081 228° Southwest  Level Estimated